Time;durP1;ratioP1;P1;durP2;ratioP2;P2;SDS_P1;SDS_P2;PMS_P1;PMS_P2;Temp;Humidity;BMP_temperature;BMP_pressure;BME280_temperature;BME280_humidity;BME280_pressure;Samples;Min_cycle;Max_cycle;Signal;HPM_P1;HPM_P2
2022/04/15 00:00:26;;;;;;;;;3.33;2.67;;;;;-147.47;100.00;64613.53;5057006;28;45483;-73
2022/04/15 00:02:52;;;;;;;;;5.00;4.00;;;;;-147.47;100.00;64613.53;5056576;28;45889;-72
2022/04/15 00:05:34;;;;;;;;;1.00;1.00;;;;;-147.47;100.00;64613.53;5074105;28;45793;-71
2022/04/15 00:08:00;;;;;;;;;5.00;3.00;;;;;-147.47;100.00;64613.53;5074185;28;45750;-68
2022/04/15 00:10:28;;;;;;;;;6.33;2.33;;;;;-147.47;100.00;64613.53;5074461;28;45424;-69
2022/04/15 00:12:55;;;;;;;;;3.67;3.67;;;;;-147.47;100.00;64613.53;5071223;27;45270;-72
2022/04/15 00:15:20;;;;;;;;;3.00;3.00;;;;;-147.47;100.00;64613.53;5089085;27;46032;-69
2022/04/15 00:17:46;;;;;;;;;3.00;3.00;;;;;-147.47;100.00;64613.53;5072192;28;45385;-70
2022/04/15 00:20:12;;;;;;;;;3.67;3.00;;;;;-147.47;100.00;64613.53;5072019;28;45660;-68
2022/04/15 00:22:38;;;;;;;;;3.00;2.00;;;;;-147.47;100.00;64613.53;5073796;28;45598;-69
2022/04/15 00:25:04;;;;;;;;;3.33;2.00;;;;;-147.47;100.00;64613.53;5073098;28;45458;-69
2022/04/15 00:27:29;;;;;;;;;5.00;4.00;;;;;-147.47;100.00;64613.53;5072858;28;45776;-71
2022/04/15 00:29:55;;;;;;;;;4.00;4.00;;;;;-147.47;100.00;64613.53;5073179;28;45825;-69
2022/04/15 00:32:20;;;;;;;;;3.33;3.33;;;;;-147.47;100.00;64613.53;5067238;28;45302;-68
2022/04/15 00:34:46;;;;;;;;;2.33;2.33;;;;;-147.47;100.00;64613.53;5070338;28;45733;-70
2022/04/15 00:37:11;;;;;;;;;3.33;2.67;;;;;-147.47;100.00;64613.53;5058367;27;45733;-68
2022/04/15 00:39:39;;;;;;;;;1.67;1.67;;;;;-147.47;100.00;64613.53;5091250;27;45703;-70
2022/04/15 00:42:08;;;;;;;;;3.00;2.33;;;;;-147.47;100.00;64613.53;5054728;28;45739;-70
2022/04/15 00:44:34;;;;;;;;;5.33;3.00;;;;;-147.47;100.00;64613.53;5072109;28;45386;-69
2022/04/15 00:46:59;;;;;;;;;3.00;3.00;;;;;-147.47;100.00;64613.53;5061663;28;45380;-70
2022/04/15 00:49:25;;;;;;;;;1.00;1.00;;;;;-147.47;100.00;64613.53;5067467;28;45840;-69
2022/04/15 00:51:51;;;;;;;;;3.33;3.00;;;;;-147.47;100.00;64613.53;5051383;28;45444;-69
2022/04/15 00:54:18;;;;;;;;;2.00;2.00;;;;;-147.47;100.00;64613.53;5065780;28;45727;-70
2022/04/15 00:56:45;;;;;;;;;5.00;2.00;;;;;-147.47;100.00;64613.53;5072237;28;45302;-72
2022/04/15 00:59:12;;;;;;;;;2.33;2.33;;;;;-147.47;100.00;64613.53;5064718;28;45788;-71
2022/04/15 01:01:40;;;;;;;;;3.00;3.00;;;;;-147.47;100.00;64613.53;5063530;28;45576;-70
2022/04/15 01:04:05;;;;;;;;;2.67;2.67;;;;;-147.47;100.00;64613.53;5071990;28;47046;-73
2022/04/15 01:06:31;;;;;;;;;3.00;3.00;;;;;-147.47;100.00;64613.53;5073164;28;45376;-73
2022/04/15 01:08:58;;;;;;;;;2.33;2.33;;;;;-147.47;100.00;64613.53;5063350;28;45417;-71
2022/04/15 01:11:26;;;;;;;;;5.67;3.00;;;;;-147.47;100.00;64613.53;5037463;28;46495;-72
2022/04/15 01:13:52;;;;;;;;;6.00;4.00;;;;;-147.47;100.00;64613.53;5078977;27;45858;-73
2022/04/15 01:16:20;;;;;;;;;5.67;4.00;;;;;-147.47;100.00;64613.53;5081962;27;45655;-73
2022/04/15 01:18:46;;;;;;;;;7.00;4.00;;;;;-147.47;100.00;64613.53;5072597;28;45653;-71
2022/04/15 01:21:12;;;;;;;;;4.67;4.67;;;;;-147.47;100.00;64613.53;5072482;28;45340;-72
2022/04/15 01:23:40;;;;;;;;;4.00;4.00;;;;;-147.47;100.00;64613.53;5072500;28;45747;-69
2022/04/15 01:26:06;;;;;;;;;5.67;4.67;;;;;-147.47;100.00;64613.53;5071796;28;45681;-68
2022/04/15 01:28:33;;;;;;;;;8.00;7.33;;;;;-147.47;100.00;64613.53;5072846;28;45683;-68
2022/04/15 01:30:58;;;;;;;;;10.33;7.00;;;;;-147.47;100.00;64613.53;5071672;28;45857;-70
2022/04/15 01:33:24;;;;;;;;;8.33;8.00;;;;;-147.47;100.00;64613.53;5071616;28;46421;-69
2022/04/15 01:35:49;;;;;;;;;10.67;8.33;;;;;-147.47;100.00;64613.53;5072560;28;45545;-70
2022/04/15 01:38:17;;;;;;;;;7.67;7.33;;;;;-147.47;100.00;64613.53;5072821;28;45827;-71
2022/04/15 01:40:43;;;;;;;;;11.67;10.00;;;;;-147.47;100.00;64613.53;5071926;28;45285;-68
2022/04/15 01:43:10;;;;;;;;;15.00;12.67;;;;;-147.47;100.00;64613.53;5071896;28;46442;-69
2022/04/15 01:45:36;;;;;;;;;12.00;11.00;;;;;-147.47;100.00;64613.53;5071341;28;45255;-70
2022/04/15 01:48:02;;;;;;;;;10.00;10.00;;;;;-147.47;100.00;64613.53;5072395;28;45375;-70
2022/04/15 01:50:28;;;;;;;;;12.00;9.67;;;;;-147.47;100.00;64613.53;5054497;28;47001;-68
2022/04/15 01:52:54;;;;;;;;;15.00;13.00;;;;;-147.47;100.00;64613.53;5072186;28;45708;-69
2022/04/15 01:55:20;;;;;;;;;10.67;10.67;;;;;-147.47;100.00;64613.53;5072190;28;45647;-68
2022/04/15 01:57:45;;;;;;;;;9.00;9.00;;;;;-147.47;100.00;64613.53;5054364;28;45745;-69
2022/04/15 02:00:11;;;;;;;;;10.33;10.33;;;;;-147.47;100.00;64613.53;5072107;28;45642;-69
2022/04/15 02:02:36;;;;;;;;;11.00;8.67;;;;;-147.47;100.00;64613.53;5071350;28;46678;-69
2022/04/15 02:05:02;;;;;;;;;11.00;9.67;;;;;-147.47;100.00;64613.53;5071949;28;45459;-69
2022/04/15 02:07:28;;;;;;;;;12.33;11.33;;;;;-147.47;100.00;64613.53;5072556;28;45681;-71
2022/04/15 02:09:53;;;;;;;;;16.67;14.33;;;;;-147.47;100.00;64613.53;5071936;28;45492;-70
2022/04/15 02:12:19;;;;;;;;;16.00;12.33;;;;;-147.47;100.00;64613.53;5072836;27;46445;-69
2022/04/15 02:14:46;;;;;;;;;15.67;11.33;;;;;-147.47;100.00;64613.53;5092062;27;45682;-69
2022/04/15 02:17:11;;;;;;;;;6.33;6.33;;;;;-147.47;100.00;64613.53;5072998;28;45372;-69
2022/04/15 02:19:36;;;;;;;;;21.00;21.00;;;;;-147.47;100.00;64613.53;5075336;28;45498;-69
2022/04/15 02:22:02;;;;;;;;;20.33;16.00;;;;;-147.47;100.00;64613.53;5075191;28;46238;-71
2022/04/15 02:24:28;;;;;;;;;14.33;13.67;;;;;-147.47;100.00;64613.53;5075768;28;45775;-71
2022/04/15 02:26:53;;;;;;;;;16.67;14.00;;;;;-147.47;100.00;64613.53;5075128;28;45798;-69
2022/04/15 02:29:18;;;;;;;;;27.33;22.00;;;;;-147.47;100.00;64613.53;5075818;28;45455;-70
2022/04/15 02:31:44;;;;;;;;;34.00;30.00;;;;;-147.47;100.00;64613.53;5074644;28;45672;-69
2022/04/15 02:34:10;;;;;;;;;19.00;18.33;;;;;-147.47;100.00;64613.53;5075193;28;45374;-69
2022/04/15 02:36:35;;;;;;;;;14.67;14.67;;;;;-147.47;100.00;64613.53;5074910;28;45722;-68
2022/04/15 02:39:01;;;;;;;;;16.67;14.33;;;;;-147.47;100.00;64613.53;5074673;28;45441;-70
2022/04/15 02:41:26;;;;;;;;;16.67;12.67;;;;;-147.47;100.00;64613.53;5074396;28;46347;-72
2022/04/15 02:43:52;;;;;;;;;18.00;18.00;;;;;-147.47;100.00;64613.53;5053138;28;45433;-71
2022/04/15 02:46:19;;;;;;;;;16.67;16.67;;;;;-147.47;100.00;64613.53;5056245;28;45338;-71
2022/04/15 02:48:44;;;;;;;;;13.33;11.67;;;;;-147.47;100.00;64613.53;5074919;28;45633;-68
2022/04/15 02:51:10;;;;;;;;;16.00;14.33;;;;;-147.47;100.00;64613.53;5074323;28;46916;-69
2022/04/15 02:53:35;;;;;;;;;20.00;18.67;;;;;-147.47;100.00;64613.53;5056456;28;45657;-69
2022/04/15 02:56:01;;;;;;;;;21.33;19.00;;;;;-147.47;100.00;64613.53;5074917;28;45439;-72
2022/04/15 02:58:26;;;;;;;;;15.00;14.33;;;;;-147.47;100.00;64613.53;5075041;28;45745;-71
2022/04/15 03:00:52;;;;;;;;;23.67;16.33;;;;;-147.47;100.00;64613.53;5074248;28;46078;-71
2022/04/15 03:03:17;;;;;;;;;14.33;13.33;;;;;-147.47;100.00;64613.53;5074099;28;45954;-78
2022/04/15 03:05:43;;;;;;;;;16.67;15.00;;;;;-147.47;100.00;64613.53;5075461;28;45286;-74
2022/04/15 03:08:08;;;;;;;;;16.67;16.67;;;;;-147.47;100.00;64613.53;5074586;28;46117;-72
2022/04/15 03:10:34;;;;;;;;;19.33;16.00;;;;;-147.47;100.00;64613.53;5074365;28;46582;-71
2022/04/15 03:13:01;;;;;;;;;17.33;15.00;;;;;-147.47;100.00;64613.53;5080177;27;45345;-71
2022/04/15 03:15:26;;;;;;;;;24.67;22.33;;;;;-147.47;100.00;64613.53;5077785;27;45386;-72
2022/04/15 03:17:52;;;;;;;;;19.00;14.67;;;;;-147.47;100.00;64613.53;5056128;28;45903;-71
2022/04/15 03:20:17;;;;;;;;;19.33;18.33;;;;;-147.47;100.00;64613.53;5054741;28;45432;-72
2022/04/15 03:22:44;;;;;;;;;19.00;15.00;;;;;-147.47;100.00;64613.53;5058502;28;45818;-72
2022/04/15 03:25:16;;;;;;;;;19.00;16.67;;;;;-147.47;100.00;64613.53;5070126;28;45251;-72
2022/04/15 03:27:43;;;;;;;;;17.00;17.00;;;;;-147.47;100.00;64613.53;5073800;28;45768;-71
2022/04/15 03:30:08;;;;;;;;;23.00;22.00;;;;;-147.47;100.00;64613.53;5056205;28;48260;-72
2022/04/15 03:32:34;;;;;;;;;22.67;18.67;;;;;-147.47;100.00;64613.53;5059085;28;47126;-72
2022/04/15 03:34:59;;;;;;;;;19.67;15.33;;;;;-147.47;100.00;64613.53;5073894;28;45851;-74
2022/04/15 03:37:25;;;;;;;;;16.67;15.00;;;;;-147.47;100.00;64613.53;5055983;28;46364;-71
2022/04/15 03:39:52;;;;;;;;;19.00;18.67;;;;;-147.47;100.00;64613.53;5074026;28;45716;-72
2022/04/15 03:42:17;;;;;;;;;17.33;16.00;;;;;-147.47;100.00;64613.53;5074048;28;45532;-72
2022/04/15 03:44:43;;;;;;;;;19.00;17.33;;;;;-147.47;100.00;64613.53;5052772;28;45668;-71
2022/04/15 03:47:08;;;;;;;;;18.00;17.00;;;;;-147.47;100.00;64613.53;5056020;28;46069;-71
2022/04/15 03:49:34;;;;;;;;;19.33;15.00;;;;;-147.47;100.00;64613.53;5074715;28;46377;-71
2022/04/15 03:52:00;;;;;;;;;17.33;16.00;;;;;-147.47;100.00;64613.53;5074198;28;45462;-69
2022/04/15 03:54:25;;;;;;;;;13.67;13.33;;;;;-147.47;100.00;64613.53;5064848;28;45960;-68
2022/04/15 03:56:51;;;;;;;;;16.33;14.00;;;;;-147.47;100.00;64613.53;5069844;28;45368;-70
2022/04/15 03:59:17;;;;;;;;;17.33;14.33;;;;;-147.47;100.00;64613.53;5054037;28;46011;-69
2022/04/15 04:01:43;;;;;;;;;17.67;15.33;;;;;-147.47;100.00;64613.53;5054938;28;45394;-69
2022/04/15 04:04:08;;;;;;;;;17.67;16.33;;;;;-147.47;100.00;64613.53;5073882;28;45378;-70
2022/04/15 04:06:34;;;;;;;;;19.67;18.67;;;;;-147.47;100.00;64613.53;5074004;28;45611;-69
2022/04/15 04:09:00;;;;;;;;;13.33;11.67;;;;;-147.47;100.00;64613.53;5073897;28;46225;-70
2022/04/15 04:11:25;;;;;;;;;15.33;14.67;;;;;-147.47;100.00;64613.53;5073766;28;45683;-71
2022/04/15 04:13:51;;;;;;;;;15.33;14.67;;;;;-147.47;100.00;64613.53;5087126;27;45610;-69
2022/04/15 04:16:18;;;;;;;;;14.00;13.67;;;;;-147.47;100.00;64613.53;5052922;27;45561;-70
2022/04/15 04:18:44;;;;;;;;;17.33;15.33;;;;;-147.47;100.00;64613.53;5052058;28;46012;-69
2022/04/15 04:21:10;;;;;;;;;14.00;14.00;;;;;-147.47;100.00;64613.53;5069879;28;45771;-72
2022/04/15 04:23:35;;;;;;;;;16.33;15.67;;;;;-147.47;100.00;64613.53;5073865;28;45415;-72
2022/04/15 04:26:03;;;;;;;;;15.67;15.67;;;;;-147.47;100.00;64613.53;5071817;28;45731;-71
2022/04/15 04:28:28;;;;;;;;;18.00;15.33;;;;;-147.47;100.00;64613.53;5052930;28;46491;-70
2022/04/15 04:30:54;;;;;;;;;7.67;6.67;;;;;-147.47;100.00;64613.53;5056766;28;45576;-71
2022/04/15 04:33:20;;;;;;;;;13.00;12.00;;;;;-147.47;100.00;64613.53;5056832;28;45463;-73
2022/04/15 04:35:46;;;;;;;;;16.33;15.33;;;;;-147.47;100.00;64613.53;5036740;28;46197;-73
2022/04/15 04:38:11;;;;;;;;;23.00;19.67;;;;;-147.47;100.00;64613.53;5057117;28;46128;-71
2022/04/15 04:40:37;;;;;;;;;38.00;34.00;;;;;-147.47;100.00;64613.53;5057522;28;45341;-74
2022/04/15 04:43:04;;;;;;;;;22.33;20.00;;;;;-147.47;100.00;64613.53;5052685;28;45303;-75
2022/04/15 04:45:31;;;;;;;;;30.67;27.00;;;;;-147.47;100.00;64613.53;5063473;28;45401;-76
2022/04/15 04:47:59;;;;;;;;;23.00;21.33;;;;;-147.47;100.00;64613.53;5066907;28;45721;-76
2022/04/15 04:50:24;;;;;;;;;10.67;7.67;;;;;-147.47;100.00;64613.53;5066355;28;45428;-73
2022/04/15 04:52:50;;;;;;;;;24.67;21.00;;;;;-147.47;100.00;64613.53;5065311;28;45583;-72
2022/04/15 04:55:15;;;;;;;;;17.67;17.67;;;;;-147.47;100.00;64613.53;5067081;28;45307;-74
2022/04/15 04:57:44;;;;;;;;;17.00;15.00;;;;;-147.47;100.00;64613.53;5071057;28;46488;-75
2022/04/15 05:00:11;;;;;;;;;20.00;16.33;;;;;-147.47;100.00;64613.53;5061660;28;45746;-72
2022/04/15 05:02:37;;;;;;;;;22.33;20.00;;;;;-147.47;100.00;64613.53;5067150;28;45784;-71
2022/04/15 05:05:04;;;;;;;;;17.33;17.33;;;;;-147.47;100.00;64613.53;5069010;28;45773;-72
2022/04/15 05:07:30;;;;;;;;;21.33;19.33;;;;;-147.47;100.00;64613.53;5071910;28;46231;-72
2022/04/15 05:09:55;;;;;;;;;20.33;17.33;;;;;-147.47;100.00;64613.53;5067370;28;45489;-71
2022/04/15 05:12:21;;;;;;;;;23.67;22.00;;;;;-147.47;100.00;64613.53;5070168;27;45657;-72
2022/04/15 05:14:46;;;;;;;;;22.33;21.33;;;;;-147.47;100.00;64613.53;5080685;27;45325;-76
2022/04/15 05:17:12;;;;;;;;;21.33;17.33;;;;;-147.47;100.00;64613.53;5058830;28;47972;-77
2022/04/15 05:19:37;;;;;;;;;25.00;22.67;;;;;-147.47;100.00;64613.53;5064483;28;45456;-73
2022/04/15 05:22:03;;;;;;;;;30.67;21.33;;;;;-147.47;100.00;64613.53;5059988;28;45945;-73
2022/04/15 05:24:28;;;;;;;;;19.33;18.00;;;;;-147.47;100.00;64613.53;5064893;28;45454;-72
2022/04/15 05:26:54;;;;;;;;;24.00;22.33;;;;;-147.47;100.00;64613.53;5065284;28;45900;-72
2022/04/15 05:29:19;;;;;;;;;24.33;20.33;;;;;-147.47;100.00;64613.53;5066243;28;46447;-71
2022/04/15 05:31:48;;;;;;;;;18.67;17.33;;;;;-147.47;100.00;64613.53;5156430;22;46163;-81
2022/04/15 05:34:53;;;;;;;;;;;;;;;;;;;;;
2022/04/15 05:44:24;;;;;;;;;15.00;10.33;;;;;-147.47;100.00;64613.53;5053589;28;45375;-83
2022/04/15 05:47:31;;;;;;;;;11.00;11.00;;;;;-147.47;100.00;64613.53;5033083;28;45738;-87
2022/04/15 05:50:08;;;;;;;;;11.33;10.33;;;;;-147.47;100.00;64613.53;4982855;28;47641;-81
2022/04/15 05:52:34;;;;;;;;;12.67;10.67;;;;;-147.47;100.00;64613.53;4971289;28;44910;-81
2022/04/15 05:54:59;;;;;;;;;9.00;7.33;;;;;-147.47;100.00;64613.53;5013621;28;45640;-80
2022/04/15 05:57:25;;;;;;;;;14.00;12.67;;;;;-147.47;100.00;64613.53;5068299;27;45485;-81
2022/04/15 05:59:50;;;;;;;;;10.33;9.67;;;;;-147.47;100.00;64613.53;5064426;27;46557;-80
2022/04/15 06:02:16;;;;;;;;;14.67;11.33;;;;;-147.47;100.00;64613.53;5050570;28;45867;-82
2022/04/15 06:04:41;;;;;;;;;11.00;11.00;;;;;-147.47;100.00;64613.53;5058888;28;45755;-83
2022/04/15 06:07:07;;;;;;;;;11.67;10.33;;;;;-147.47;100.00;64613.53;5068510;28;46294;-82
2022/04/15 06:09:53;;;;;;;;;14.00;14.00;;;;;-147.47;100.00;64613.53;5063877;27;46548;-83
2022/04/15 06:12:54;;;;;;;;;16.00;11.67;;;;;-147.47;100.00;64613.53;5063786;28;45778;-80
2022/04/15 06:15:30;;;;;;;;;9.33;9.00;;;;;-147.47;100.00;64613.53;5054754;27;45787;-83
2022/04/15 06:18:03;;;;;;;;;12.67;9.67;;;;;-147.47;100.00;64613.53;5072815;28;45820;-83
2022/04/15 06:20:30;;;;;;;;;12.33;11.67;;;;;-147.47;100.00;64613.53;5053584;28;48211;-80
2022/04/15 06:23:25;;;;;;;;;10.00;10.00;;;;;-147.47;100.00;64613.53;5074873;28;45811;-79
2022/04/15 06:25:53;;;;;;;;;11.67;10.67;;;;;-147.47;100.00;64613.53;5072849;28;45812;-80
2022/04/15 06:28:39;;;;;;;;;13.00;10.67;;;;;-147.47;100.00;64613.53;5040491;28;45415;-83
2022/04/15 06:31:05;;;;;;;;;9.00;6.67;;;;;-147.47;100.00;64613.53;5052422;28;48153;-83
2022/04/15 06:33:30;;;;;;;;;15.00;13.67;;;;;-147.47;100.00;64613.53;5046449;28;45897;-82
2022/04/15 06:35:56;;;;;;;;;12.00;10.67;;;;;-147.47;100.00;64613.53;5062150;28;45589;-81
2022/04/15 06:38:21;;;;;;;;;12.00;12.00;;;;;-147.47;100.00;64613.53;5050283;28;46543;-81
2022/04/15 06:40:47;;;;;;;;;12.33;11.33;;;;;-147.47;100.00;64613.53;5054183;28;47588;-80
2022/04/15 06:43:14;;;;;;;;;11.00;10.00;;;;;-147.47;100.00;64613.53;5074023;28;45503;-81
2022/04/15 06:46:00;;;;;;;;;10.00;9.00;;;;;-147.47;100.00;64613.53;5074391;28;45556;-79
2022/04/15 06:48:26;;;;;;;;;11.67;11.67;;;;;-147.47;100.00;64613.53;5070859;28;45833;-81
2022/04/15 06:50:53;;;;;;;;;14.33;12.67;;;;;-147.47;100.00;64613.53;5080543;28;46070;-79
2022/04/15 06:53:19;;;;;;;;;10.33;7.67;;;;;-147.47;100.00;64613.53;5063530;28;45813;-80
2022/04/15 06:55:45;;;;;;;;;10.33;9.33;;;;;-147.47;100.00;64613.53;5073002;28;45401;-81
2022/04/15 06:58:23;;;;;;;;;9.50;8.75;;;;;-147.47;100.00;64613.53;5067213;28;45723;-80
2022/04/15 07:00:49;;;;;;;;;10.33;10.00;;;;;-147.47;100.00;64613.53;5043719;28;47105;-79
2022/04/15 07:03:15;;;;;;;;;12.33;9.00;;;;;-147.47;100.00;64613.53;5066452;28;45791;-82
2022/04/15 07:05:42;;;;;;;;;10.33;9.00;;;;;-147.47;100.00;64613.53;5072815;28;45836;-82
2022/04/15 07:08:09;;;;;;;;;10.67;10.67;;;;;-147.47;100.00;64613.53;5074965;28;45595;-83
2022/04/15 07:10:35;;;;;;;;;10.33;10.33;;;;;-147.47;100.00;64613.53;5059267;28;47463;-82
2022/04/15 07:13:01;;;;;;;;;11.33;10.33;;;;;-147.47;100.00;64613.53;5075504;28;46031;-82
2022/04/15 07:15:27;;;;;;;;;11.67;9.67;;;;;-147.47;100.00;64613.53;5056693;28;45529;-82
2022/04/15 07:17:52;;;;;;;;;8.67;8.67;;;;;-147.47;100.00;64613.53;5074536;28;45573;-82
2022/04/15 07:20:18;;;;;;;;;9.33;9.33;;;;;-147.47;100.00;64613.53;5056615;28;47427;-83
2022/04/15 07:22:43;;;;;;;;;10.67;9.00;;;;;-147.47;100.00;64613.53;5070705;28;45681;-82
2022/04/15 07:25:09;;;;;;;;;8.50;7.50;;;;;-147.47;100.00;64613.53;5059847;28;45817;-82
2022/04/15 07:27:34;;;;;;;;;13.33;9.67;;;;;-147.47;100.00;64613.53;5059412;28;45658;-81
2022/04/15 07:30:00;;;;;;;;;10.25;9.50;;;;;-147.47;100.00;64613.53;5058040;28;47200;-81
2022/04/15 07:32:27;;;;;;;;;6.25;6.25;;;;;-147.47;100.00;64613.53;5077466;28;45436;-82
2022/04/15 07:34:53;;;;;;;;;13.67;11.67;;;;;-147.47;100.00;64613.53;5059575;28;45763;-81
2022/04/15 07:37:22;;;;;;;;;12.00;8.33;;;;;-147.47;100.00;64613.53;5069930;28;45872;-80
2022/04/15 07:39:47;;;;;;;;;10.00;8.50;;;;;-147.47;100.00;64613.53;5071761;28;45890;-78
2022/04/15 07:42:14;;;;;;;;;11.00;9.25;;;;;-147.47;100.00;64613.53;5073292;28;45561;-78
2022/04/15 07:44:41;;;;;;;;;5.33;5.33;;;;;-147.47;100.00;64613.53;5074469;28;45908;-80
2022/04/15 07:47:09;;;;;;;;;10.00;10.00;;;;;-147.47;100.00;64613.53;5056187;28;47289;-80
2022/04/15 07:49:35;;;;;;;;;11.00;11.00;;;;;-147.47;100.00;64613.53;5053450;28;46908;-79
2022/04/15 07:52:02;;;;;;;;;8.25;7.25;;;;;-147.47;100.00;64613.53;5068043;28;45383;-80
2022/04/15 07:54:28;;;;;;;;;12.33;12.33;;;;;-147.47;100.00;64613.53;5076109;27;45389;-80
2022/04/15 07:56:53;;;;;;;;;9.33;8.33;;;;;-147.47;100.00;64613.53;5056002;28;45824;-80
2022/04/15 07:59:19;;;;;;;;;8.00;8.00;;;;;-147.47;100.00;64613.53;5074497;28;48434;-82
2022/04/15 08:01:46;;;;;;;;;9.50;9.50;;;;;-147.47;100.00;64613.53;5076009;28;45539;-82
2022/04/15 08:04:11;;;;;;;;;8.00;8.00;;;;;-147.47;100.00;64613.53;5055830;28;44866;-81
2022/04/15 08:06:37;;;;;;;;;14.67;11.00;;;;;-147.47;100.00;64613.53;5054115;28;45629;-78
2022/04/15 08:09:03;;;;;;;;;11.33;10.67;;;;;-147.47;100.00;64613.53;5056543;28;46890;-78
2022/04/15 08:11:28;;;;;;;;;11.67;11.67;;;;;-147.47;100.00;64613.53;5056681;28;45824;-82
2022/04/15 08:13:58;;;;;;;;;15.00;11.00;;;;;-147.47;100.00;64613.53;5057018;27;45958;-78
2022/04/15 08:16:24;;;;;;;;;15.00;13.67;;;;;-147.47;100.00;64613.53;5055349;27;46078;-80
2022/04/15 08:18:54;;;;;;;;;14.00;12.33;;;;;-147.47;100.00;64613.53;5057193;28;46235;-84
2022/04/15 08:21:20;;;;;;;;;13.33;12.33;;;;;-147.47;100.00;64613.53;5056034;28;45562;-83
2022/04/15 08:23:52;;;;;;;;;15.67;15.67;;;;;-147.47;100.00;64613.53;5064604;28;45684;-83
2022/04/15 08:26:18;;;;;;;;;16.00;14.67;;;;;-147.47;100.00;64613.53;5064767;28;45436;-83
2022/04/15 08:28:43;;;;;;;;;17.00;15.00;;;;;-147.47;100.00;64613.53;5063708;28;45626;-80
2022/04/15 08:31:18;;;;;;;;;16.00;15.67;;;;;-147.47;100.00;64613.53;5049878;28;46782;-79
2022/04/15 08:33:53;;;;;;;;;18.67;16.33;;;;;-147.47;100.00;64613.53;5052534;28;45729;-80
2022/04/15 08:36:18;;;;;;;;;14.67;14.67;;;;;-147.47;100.00;64613.53;5042382;28;47177;-79
2022/04/15 08:38:57;;;;;;;;;;;;;;;;;;;;;
2022/04/15 08:41:26;;;;;;;;;13.67;12.67;;;;;-147.47;100.00;64613.53;5069365;28;74028;-83
2022/04/15 08:43:56;;;;;;;;;17.00;15.33;;;;;-147.47;100.00;64613.53;5053344;28;45506;-82
2022/04/15 08:46:23;;;;;;;;;13.00;12.67;;;;;-147.47;100.00;64613.53;5050292;28;45756;-80
2022/04/15 08:48:51;;;;;;;;;15.33;14.67;;;;;-147.47;100.00;64613.53;5062008;28;46416;-78
2022/04/15 08:51:17;;;;;;;;;16.67;13.67;;;;;-147.47;100.00;64613.53;5063681;28;45795;-81
2022/04/15 08:53:55;;;;;;;;;16.00;12.00;;;;;-147.47;100.00;64613.53;5073714;28;45438;-84
2022/04/15 08:56:22;;;;;;;;;9.00;8.00;;;;;-147.47;100.00;64613.53;5072031;28;45628;-79
2022/04/15 08:58:48;;;;;;;;;9.25;7.50;;;;;-147.47;100.00;64613.53;5065291;28;45784;-79
2022/04/15 09:01:14;;;;;;;;;6.75;6.75;;;;;-147.47;100.00;64613.53;5059861;28;45820;-82
2022/04/15 09:03:40;;;;;;;;;8.00;8.00;;;;;-147.47;100.00;64613.53;5051190;28;45885;-81
2022/04/15 09:06:18;;;;;;;;;10.00;7.50;;;;;-147.47;100.00;64613.53;5070736;28;45429;-82
2022/04/15 09:09:02;;;;;;;;;9.50;8.75;;;;;-147.47;100.00;64613.53;5067003;28;45476;-79
2022/04/15 09:11:32;;;;;;;;;6.75;5.00;;;;;-147.47;100.00;64613.53;5071015;28;45757;-79
2022/04/15 09:14:02;;;;;;;;;5.75;3.75;;;;;-147.47;100.00;64613.53;5060384;28;45887;-80
2022/04/15 09:16:28;;;;;;;;;2.75;2.50;;;;;-147.47;100.00;64613.53;5062406;28;45750;-81
2022/04/15 09:18:54;;;;;;;;;9.75;9.75;;;;;-147.47;100.00;64613.53;5058208;28;46831;-83
2022/04/15 09:21:25;;;;;;;;;2.75;2.75;;;;;-147.47;100.00;64613.53;5068217;28;45767;-79
2022/04/15 09:23:55;;;;;;;;;1.50;1.50;;;;;-147.47;100.00;64613.53;5057864;28;45896;-80
2022/04/15 09:26:25;;;;;;;;;1.50;1.50;;;;;-147.47;100.00;64613.53;5067227;28;45690;-79
2022/04/15 09:28:53;;;;;;;;;1.00;1.00;;;;;-147.47;100.00;64613.53;5048561;28;46197;-79
2022/04/15 09:31:36;;;;;;;;;4.00;3.00;;;;;-147.47;100.00;64613.53;5059882;28;44757;-81
2022/04/15 09:34:19;;;;;;;;;0.50;0.50;;;;;-147.47;100.00;64613.53;5063627;28;45762;-80
2022/04/15 09:36:47;;;;;;;;;2.00;2.00;;;;;-147.47;100.00;64613.53;5061829;28;46299;-81
2022/04/15 09:39:18;;;;;;;;;2.00;2.00;;;;;-147.47;100.00;64613.53;5053601;28;47017;-82
2022/04/15 09:41:54;;;;;;;;;1.00;1.00;;;;;-147.47;100.00;64613.53;5070093;28;45850;-83
2022/04/15 09:44:22;;;;;;;;;1.00;1.00;;;;;-147.47;100.00;64613.53;5052104;28;45379;-82
2022/04/15 09:46:50;;;;;;;;;0.00;0.00;;;;;-147.47;100.00;64613.53;5054659;28;45511;-81
2022/04/15 09:49:16;;;;;;;;;0.00;0.00;;;;;-147.47;100.00;64613.53;5054638;28;46821;-82
2022/04/15 09:51:51;;;;;;;;;0.75;0.75;;;;;-147.47;100.00;64613.53;5057417;28;45505;-79
2022/04/15 09:54:28;;;;;;;;;0.00;0.00;;;;;-147.47;100.00;64613.53;5072690;28;45538;-82
2022/04/15 09:56:59;;;;;;;;;0.00;0.00;;;;;-147.47;100.00;64613.53;5057199;28;45917;-83
2022/04/15 09:59:28;;;;;;;;;0.00;0.00;;;;;-147.47;100.00;64613.53;5043973;28;47546;-84
2022/04/15 10:02:06;;;;;;;;;2.00;2.00;;;;;-147.47;100.00;64613.53;5080077;27;45439;-83
2022/04/15 10:04:39;;;;;;;;;2.75;2.75;;;;;-147.47;100.00;64613.53;5056031;28;45579;-84
2022/04/15 10:07:15;;;;;;;;;0.00;0.00;;;;;-147.47;100.00;64613.53;5078076;28;45734;-83
2022/04/15 10:10:05;;;;;;;;;0.00;0.00;;;;;-147.47;100.00;64613.53;5073288;28;45915;-82
2022/04/15 10:12:39;;;;;;;;;0.50;0.50;;;;;-147.47;100.00;64613.53;5065188;28;45496;-80
2022/04/15 10:15:09;;;;;;;;;0.00;0.00;;;;;-147.47;100.00;64613.53;5084790;27;45392;-86
2022/04/15 10:17:39;;;;;;;;;0.00;0.00;;;;;-147.47;100.00;64613.53;5074941;28;46013;-84
2022/04/15 10:20:15;;;;;;;;;1.75;0.75;;;;;-147.47;100.00;64613.53;5069794;28;46884;-84
2022/04/15 10:23:11;;;;;;;;;0.00;0.00;;;;;-147.47;100.00;64613.53;5055151;28;45767;-83
2022/04/15 10:25:38;;;;;;;;;0.00;0.00;;;;;-147.47;100.00;64613.53;5056559;28;46386;-83
2022/04/15 10:28:09;;;;;;;;;1.00;0.00;;;;;-147.47;100.00;64613.53;5059079;28;45698;-84
2022/04/15 10:30:56;;;;;;;;;0.00;0.00;;;;;-147.47;100.00;64613.53;5078353;28;45681;-83
2022/04/15 10:33:34;;;;;;;;;0.50;0.00;;;;;-147.47;100.00;64613.53;5061209;28;46021;-84
2022/04/15 10:36:14;;;;;;;;;0.00;0.00;;;;;-147.47;100.00;64613.53;5058237;28;44849;-82
2022/04/15 10:39:06;;;;;;;;;0.00;0.00;;;;;-147.47;100.00;64613.53;5061608;28;46375;-83
2022/04/15 10:41:56;;;;;;;;;0.00;0.00;;;;;-147.47;100.00;64613.53;5052702;28;48117;-84
2022/04/15 10:45:00;;;;;;;;;0.00;0.00;;;;;-147.47;100.00;64613.53;5078690;28;46068;-85
2022/04/15 10:47:34;;;;;;;;;0.00;0.00;;;;;-147.47;100.00;64613.53;4982759;28;45413;-84
2022/04/15 10:50:07;;;;;;;;;0.50;0.00;;;;;-147.47;100.00;64613.53;5074961;28;45445;-82
2022/04/15 10:52:39;;;;;;;;;0.00;0.00;;;;;-147.47;100.00;64613.53;5055965;28;47040;-84
2022/04/15 10:55:13;;;;;;;;;0.00;0.00;;;;;-147.47;100.00;64613.53;5074095;28;45747;-83
2022/04/15 10:57:48;;;;;;;;;0.00;0.00;;;;;-147.47;100.00;64613.53;5052454;28;45919;-82
2022/04/15 11:03:23;;;;;;;;;0.00;0.00;;;;;-147.47;100.00;64613.53;5074961;28;45682;-84
2022/04/15 11:05:50;;;;;;;;;0.00;0.00;;;;;-147.47;100.00;64613.53;5068025;28;45480;-80
2022/04/15 11:08:21;;;;;;;;;0.25;0.25;;;;;-147.47;100.00;64613.53;5054363;28;45596;-82
2022/04/15 11:10:54;;;;;;;;;1.00;1.00;;;;;-147.47;100.00;64613.53;5056386;28;46102;-80
2022/04/15 11:13:23;;;;;;;;;2.00;0.25;;;;;-147.47;100.00;64613.53;5071028;28;45804;-81
2022/04/15 11:15:53;;;;;;;;;2.00;1.00;;;;;-147.47;100.00;64613.53;5055864;28;45541;-80
2022/04/15 11:18:18;;;;;;;;;0.00;0.00;;;;;-147.47;100.00;64613.53;5073298;28;45885;-81
2022/04/15 11:20:45;;;;;;;;;0.25;0.25;;;;;-147.47;100.00;64613.53;5075360;28;45493;-81